Observations for AMENDOLA IT-AFB, Italy (LIBA)

LIBA 191255Z 29012KT 9999 FEW030 SCT060 26/16 Q1015 RMK BKN BKN200 VIS MIN 9999 WIND THR11 28015KT WIND THR29 /////KT BLU   
LIBA 191155Z 29010KT 9999 FEW030 24/18 Q1015 RMK BKN BKN200 VIS MIN 9999 WIND THR11 28009KT WIND THR29 /////KT BLU  
LIBA 191055Z 28009KT 9999 SCT040 SCT060 25/17 Q1015 RMK BKN VIS MIN 9999 WIND THR11 29010KT WIND THR29 /////KT BLU  
LIBA 190955Z 29015KT 9999 FEW025CB SCT035 24/19 Q1015 RMK BKN VIS MIN 9999 WIND THR11 29015KT WIND THR29 /////KT BLU
LIBA 190855Z 29016KT 8000 FEW025CB SCT035 BKN060 21/20 Q1015 RMK OVC VIS MIN 8000 WIND THR11 29015KT WIND THR29 /////KT BLU 
LIBA 190755Z 29015KT 8000 FEW025CB SCT035 BKN050 21/19 Q1015 RMK OVC VIS MIN 8000 WIND THR11 29016KT WIND THR29 /////KT BLU 
LIBA 190655Z 33007KT 7000 FEW020CB SCT030TCU BKN050 22/20 Q1014 RMK OVC VIS MIN 7000 WIND THR11 32007KT WIND THR29 /////KT WHT  
LIBA 190555Z 27003KT 6000 FEW025TCU SCT030 21/19 Q1014 RMK BKN VIS MIN 6000 WIND THR11 26003KT WIND THR29 /////KT WHT   
LIBA 190455Z 29003KT 6000 FEW005 FEW025TCU SCT030 21/20 Q1014 RMK BKN VIS MIN 6000 WIND THR11 28002KT WIND THR29 /////KT WHT
LIBA 190355Z VRB01KT 8000 SCT004 SCT060 21/20 Q1015 RMK BKN BKN180 VIS MIN 8000 BLU 
LIBA 190255Z 21003KT 9999 OVC005 21/20 Q1015 RMK OVC VIS MIN 9999 WIND THR11 VRB02KT WIND THR29 /////KT YLO 
LIBA 190155Z 24002KT 9999 SCT007 22/21 Q1015 RMK BKN BKN180 VIS MIN 6000N WIND THR11 26002KT WIND THR29 /////KT WHT 
LIBA 190055Z 26005KT 9999 SCT007 22/21 Q1015 RMK BKN BKN180 VIS MIN 7000N WIND THR11 26005KT WIND THR29 /////KT WHT 
LIBA 182355Z 27005KT 9999 FEW030 22/22 Q1015 RMK SCT SCT250 VIS MIN 9999 WIND THR11 27005KT WIND THR29 /////KT BLU  
LIBA 182255Z 29003KT 9999 FEW030 23/23 Q1015 RMK SCT SCT250 VIS MIN 9999 WIND THR11 VRB02KT WIND THR29 /////KT BLU  
LIBA 182155Z 28005KT 9999 FEW015 SCT030 BKN060 23/23 Q1015 RMK BKN VIS MIN 9999 WIND THR11 28005KT WIND THR29 /////KT BLU   
LIBA 182055Z 28004KT 9999 FEW030 SCT060 23/23 Q1015 RMK BKN VIS MIN 9999 WIND THR11 28004KT WIND THR29 /////KT BLU  
LIBA 181955Z 01003KT 9999 FEW030 24/24 Q1015 RMK SCT SCT200 VIS MIN 9999 WIND THR11 01002KT WIND THR29 /////KT BLU  
LIBA 181855Z 05006KT 9999 FEW030 25/25 Q1015 RMK FEW VIS MIN 9999 WIND THR11 06005KT WIND THR29 /////KT BLU 
LIBA 181755Z 08005KT 9999 FEW030 25/24 Q1014 RMK SCT SCT070 VIS MIN 9999 WIND THR11 08006KT WIND THR29 /////KT BLU  
LIBA 181655Z 09008KT 9999 FEW030 26/23 Q1014 RMK SCT SCT070 VIS MIN 9999 WIND THR11 09009KT WIND THR29 /////KT BLU  
LIBA 181555Z 08009KT 9999 FEW030 28/21 Q1013 RMK SCT SCT150 VIS MIN 9999 WIND THR11 09012KT WIND THR29 /////KT BLU  
LIBA 181455Z 08011KT 9999 FEW030 FEW035TCU 29/21 Q1013 RMK FEW VIS MIN 9999 WIND THR11 09013KT WIND THR29 /////KT BLU   
LIBA 181355Z 08010KT 9999 FEW030 FEW035TCU 31/21 Q1013 RMK FEW VIS MIN 9999 WIND THR11 08011KT WIND THR29 /////KT BLU   
LIBA 181255Z 08007KT 9999 FEW030 32/16 Q1013 RMK FEW VIS MIN 9999 WIND THR11 10007KT WIND THR29 /////KT BLU